createdAt,value
2022-08-10T00:01:02.630Z,18.00
2022-08-10T00:03:07.600Z,17.90
2022-08-10T00:05:10.513Z,17.90
2022-08-10T00:07:13.250Z,17.80
2022-08-10T00:09:15.965Z,17.80
2022-08-10T00:11:18.701Z,17.70
2022-08-10T00:13:21.608Z,17.70
2022-08-10T00:15:52.965Z,17.60
2022-08-10T00:17:48.367Z,17.50
2022-08-10T00:20:03.524Z,17.50
2022-08-10T00:22:11.499Z,17.40
2022-08-10T00:24:19.655Z,17.30
2022-08-10T00:26:22.505Z,17.20
2022-08-10T00:28:25.235Z,17.10
2022-08-10T00:30:29.331Z,17.00
2022-08-10T00:32:32.115Z,17.00
2022-08-10T00:34:35.043Z,16.90
2022-08-10T00:36:37.794Z,16.90
2022-08-10T00:38:40.521Z,16.90
2022-08-10T00:40:43.262Z,16.80
2022-08-10T00:42:45.984Z,16.80
2022-08-10T00:44:49.933Z,16.90
2022-08-10T00:46:54.011Z,16.90
2022-08-10T00:49:00.623Z,16.90
2022-08-10T00:51:03.574Z,16.90
2022-08-10T00:53:06.329Z,16.90
2022-08-10T00:55:09.497Z,16.90
2022-08-10T00:57:18.083Z,16.80
2022-08-10T00:59:21.378Z,16.80
2022-08-10T01:02:09.256Z,16.80
2022-08-10T01:04:36.575Z,16.70
2022-08-10T01:06:15.283Z,16.70
2022-08-10T01:08:21.803Z,16.50
2022-08-10T01:10:41.745Z,16.40
2022-08-10T01:12:49.826Z,16.40
2022-08-10T01:14:56.751Z,16.40
2022-08-10T01:17:02.920Z,16.30
2022-08-10T01:19:12.783Z,16.30
2022-08-10T01:21:35.685Z,16.30
2022-08-10T01:24:14.186Z,16.30
2022-08-10T01:26:41.231Z,16.30
2022-08-10T01:28:51.546Z,16.20
2022-08-10T01:30:56.951Z,16.20
2022-08-10T01:33:02.297Z,16.20
2022-08-10T01:35:11.175Z,16.20
2022-08-10T01:37:15.631Z,16.20
2022-08-10T01:39:22.105Z,16.20
2022-08-10T01:41:26.903Z,16.10
2022-08-10T01:43:29.987Z,16.10
2022-08-10T01:45:44.945Z,16.10
2022-08-10T01:48:16.708Z,16.20
2022-08-10T01:50:21.616Z,16.10
2022-08-10T01:52:24.614Z,16.10
2022-08-10T01:54:27.355Z,16.10
2022-08-10T01:56:32.614Z,16.10
2022-08-10T01:58:35.399Z,16.00
2022-08-10T02:00:39.987Z,16.10
2022-08-10T02:02:42.766Z,16.10
2022-08-10T02:04:48.783Z,16.10
2022-08-10T02:06:52.326Z,16.10
2022-08-10T02:09:05.673Z,16.10
2022-08-10T02:11:09.431Z,16.10
2022-08-10T02:13:12.189Z,16.00
2022-08-10T02:15:17.609Z,16.00
2022-08-10T02:18:00.353Z,15.90
2022-08-10T02:19:46.744Z,15.90
2022-08-10T02:22:34.907Z,15.80
2022-08-10T02:24:13.728Z,15.80
2022-08-10T02:26:16.436Z,15.70
2022-08-10T02:28:29.943Z,15.70
2022-08-10T02:30:33.781Z,15.70
2022-08-10T02:32:38.162Z,15.70
2022-08-10T02:34:41.332Z,15.70
2022-08-10T02:36:48.396Z,15.70
2022-08-10T02:38:58.281Z,15.70
2022-08-10T02:45:03.266Z,15.60
2022-08-10T02:45:21.692Z,15.60
2022-08-10T02:45:55.993Z,15.70
2022-08-10T02:48:01.157Z,15.70
2022-08-10T02:50:07.540Z,15.80
2022-08-10T02:52:15.263Z,15.80
2022-08-10T02:54:21.265Z,15.80
2022-08-10T02:56:25.732Z,15.80
2022-08-10T02:58:30.605Z,15.70
2022-08-10T03:00:33.325Z,15.60
2022-08-10T03:02:37.167Z,15.60
2022-08-10T03:04:56.134Z,15.60
2022-08-10T03:07:02.534Z,15.60
2022-08-10T03:09:08.140Z,15.50
2022-08-10T03:11:13.296Z,15.50
2022-08-10T03:13:16.028Z,15.50
2022-08-10T03:15:19.833Z,15.50
2022-08-10T03:17:22.539Z,15.40
2022-08-10T03:20:33.367Z,15.40
2022-08-10T03:21:48.993Z,15.30
2022-08-10T03:23:51.929Z,15.30
2022-08-10T03:25:57.374Z,15.30
2022-08-10T03:28:00.231Z,15.20
2022-08-10T03:30:28.391Z,15.20
2022-08-10T03:32:25.702Z,15.10
2022-08-10T03:34:33.113Z,15.00
2022-08-10T03:36:40.366Z,14.90
2022-08-10T03:38:46.128Z,14.90
2022-08-10T03:40:48.882Z,14.90
2022-08-10T03:42:52.932Z,14.90
2022-08-10T03:44:55.653Z,14.80
2022-08-10T03:46:59.470Z,14.70
2022-08-10T03:49:03.192Z,14.60
2022-08-10T03:51:06.081Z,14.60
2022-08-10T03:53:08.813Z,14.50
2022-08-10T03:56:27.019Z,14.50
2022-08-10T03:57:52.096Z,14.50
2022-08-10T03:59:54.815Z,14.50
2022-08-10T04:02:52.880Z,14.60
2022-08-10T04:04:24.287Z,14.60
2022-08-10T04:06:27.596Z,14.60
2022-08-10T04:08:30.330Z,14.60
2022-08-10T04:10:33.036Z,14.60
2022-08-10T04:12:35.802Z,14.60
2022-08-10T04:14:51.274Z,14.60
2022-08-10T04:16:55.061Z,14.60
2022-08-10T04:18:57.838Z,14.50
2022-08-10T04:21:02.488Z,14.60
2022-08-10T04:23:07.512Z,14.50
2022-08-10T04:25:10.442Z,14.50
2022-08-10T04:27:13.221Z,14.40
2022-08-10T04:29:15.957Z,14.40
2022-08-10T04:31:20.003Z,14.40
2022-08-10T04:33:23.565Z,14.40
2022-08-10T04:35:26.479Z,14.50
2022-08-10T04:37:29.273Z,14.50
2022-08-10T04:39:32.174Z,14.60
2022-08-10T04:41:35.909Z,14.60
2022-08-10T04:43:38.675Z,14.60
2022-08-10T04:45:49.201Z,14.60
2022-08-10T04:48:00.705Z,14.70
2022-08-10T04:50:07.234Z,14.70
2022-08-10T04:52:10.700Z,14.70
2022-08-10T04:54:15.898Z,14.80
2022-08-10T04:56:18.838Z,14.90
2022-08-10T04:58:21.541Z,15.00
2022-08-10T05:00:24.269Z,15.00
2022-08-10T05:02:30.089Z,15.10
2022-08-10T05:04:39.252Z,15.20
2022-08-10T05:06:42.204Z,15.40
2022-08-10T05:08:44.919Z,15.50
2022-08-10T05:10:47.628Z,15.70
2022-08-10T05:12:50.597Z,15.80
2022-08-10T05:14:54.552Z,15.90
2022-08-10T05:16:57.567Z,16.10
2022-08-10T05:19:00.311Z,16.20
2022-08-10T05:21:04.487Z,16.30
2022-08-10T05:23:07.361Z,16.50
2022-08-10T05:25:11.675Z,16.60
2022-08-10T05:27:14.385Z,16.70
2022-08-10T05:29:17.117Z,16.80
2022-08-10T05:31:22.592Z,17.00
2022-08-10T05:33:27.009Z,17.00
2022-08-10T05:35:55.304Z,17.10
2022-08-10T05:38:12.331Z,17.20
2022-08-10T05:40:16.891Z,17.30
2022-08-10T05:42:21.582Z,17.40
2022-08-10T05:44:24.347Z,17.50
2022-08-10T05:46:27.062Z,17.60
2022-08-10T05:48:57.769Z,17.70
2022-08-10T05:50:52.509Z,17.70
2022-08-10T05:52:56.558Z,17.80
2022-08-10T05:55:02.729Z,17.90
2022-08-10T05:57:05.857Z,17.90
2022-08-10T05:59:08.704Z,17.80
2022-08-10T06:01:13.611Z,18.00
2022-08-10T06:03:16.339Z,18.00
2022-08-10T06:05:22.306Z,17.90
2022-08-10T06:07:27.073Z,18.10
2022-08-10T06:09:31.239Z,18.20
2022-08-10T06:12:26.063Z,18.30
2022-08-10T06:14:16.592Z,18.40
2022-08-10T06:16:22.082Z,18.50
2022-08-10T06:18:24.896Z,18.60
2022-08-10T06:20:27.629Z,18.80
2022-08-10T06:22:35.790Z,18.80
2022-08-10T06:25:04.562Z,18.80
2022-08-10T06:27:03.571Z,19.10
2022-08-10T06:29:07.939Z,19.20
2022-08-10T06:31:10.680Z,19.30
2022-08-10T06:33:13.395Z,19.30
2022-08-10T06:35:16.133Z,19.50
2022-08-10T06:37:19.140Z,19.70
2022-08-10T06:39:33.720Z,19.80
2022-08-10T06:42:01.335Z,20.00
2022-08-10T06:44:06.943Z,20.10
2022-08-10T06:46:12.264Z,20.30
2022-08-10T06:48:17.439Z,20.50
2022-08-10T06:50:35.137Z,20.60
2022-08-10T06:52:48.421Z,20.60
2022-08-10T06:54:51.473Z,21.00
2022-08-10T06:57:17.441Z,21.10
2022-08-10T06:59:21.852Z,21.30
2022-08-10T07:01:29.234Z,21.40
2022-08-10T07:03:35.401Z,21.50
2022-08-10T07:05:40.259Z,21.70
2022-08-10T07:07:45.691Z,21.90
2022-08-10T07:09:48.507Z,22.00
2022-08-10T07:11:51.212Z,22.00
2022-08-10T07:14:17.512Z,22.20
2022-08-10T07:16:19.481Z,22.40
2022-08-10T07:18:22.355Z,22.30
2022-08-10T07:20:25.211Z,22.50
2022-08-10T07:23:51.873Z,22.50
2022-08-10T07:24:51.884Z,22.80
2022-08-10T07:26:55.578Z,22.90
2022-08-10T07:28:59.619Z,22.90
2022-08-10T07:31:02.344Z,23.20
2022-08-10T07:33:06.747Z,23.30
2022-08-10T07:35:10.006Z,23.50
2022-08-10T07:37:12.973Z,23.50
2022-08-10T07:39:15.749Z,23.60
2022-08-10T07:41:40.815Z,23.90
2022-08-10T07:43:43.533Z,24.10
2022-08-10T07:45:47.692Z,23.90
2022-08-10T07:47:55.062Z,24.30
2022-08-10T07:49:58.421Z,24.50
2022-08-10T07:52:01.161Z,24.50
2022-08-10T07:54:06.159Z,24.60
2022-08-10T07:56:26.064Z,24.50
2022-08-10T07:58:34.960Z,24.50
2022-08-10T08:00:37.682Z,24.50
2022-08-10T08:02:45.635Z,24.60
2022-08-10T08:04:48.709Z,24.90
2022-08-10T08:06:51.951Z,25.20
2022-08-10T08:08:54.656Z,25.20
2022-08-10T08:10:57.380Z,25.20
2022-08-10T08:13:01.282Z,25.50
2022-08-10T08:16:15.749Z,25.50
2022-08-10T08:17:35.609Z,25.60
2022-08-10T08:19:45.825Z,25.60
2022-08-10T08:24:05.200Z,25.70
2022-08-10T08:24:32.315Z,25.90
2022-08-10T08:26:37.637Z,26.10
2022-08-10T08:28:40.355Z,26.10
2022-08-10T08:30:48.322Z,26.30
2022-08-10T08:32:51.573Z,26.20
2022-08-10T08:34:58.520Z,26.40
2022-08-10T08:37:01.727Z,26.50
2022-08-10T08:39:04.517Z,26.60
2022-08-10T08:41:15.116Z,26.80
2022-08-10T08:43:27.366Z,26.80
2022-08-10T08:45:51.058Z,27.10
2022-08-10T08:48:13.701Z,27.20
2022-08-10T08:50:25.946Z,27.50
2022-08-10T08:52:36.359Z,27.50
2022-08-10T08:54:46.496Z,27.60
2022-08-10T08:56:58.609Z,27.10
2022-08-10T08:59:09.995Z,27.70
2022-08-10T09:01:40.555Z,27.60
2022-08-10T09:03:59.424Z,27.70
2022-08-10T09:06:09.959Z,28.10
2022-08-10T09:08:33.019Z,28.30
2022-08-10T09:10:40.567Z,28.10
2022-08-10T09:12:48.799Z,27.90
2022-08-10T09:14:53.696Z,28.10
2022-08-10T09:17:00.654Z,28.20
2022-08-10T09:19:07.336Z,28.40
2022-08-10T09:21:16.917Z,28.90
2022-08-10T09:24:05.531Z,28.60
2022-08-10T09:25:53.660Z,28.70
2022-08-10T09:28:00.575Z,29.00
2022-08-10T09:30:05.333Z,29.20
2022-08-10T09:36:13.859Z,29.50
2022-08-10T09:36:20.491Z,29.50
2022-08-10T09:37:05.065Z,29.70
2022-08-10T09:40:50.046Z,29.90
2022-08-10T09:41:40.855Z,29.60
2022-08-10T09:43:49.191Z,29.20
2022-08-10T09:45:54.501Z,29.80
2022-08-10T09:48:03.075Z,29.70
2022-08-10T09:50:13.901Z,29.20
2022-08-10T09:52:22.068Z,29.20
2022-08-10T09:54:49.762Z,29.50
2022-08-10T09:57:17.947Z,30.00
2022-08-10T10:00:00.836Z,30.20
2022-08-10T10:02:03.115Z,30.60
2022-08-10T10:04:17.256Z,31.00
2022-08-10T10:06:22.997Z,30.90
2022-08-10T10:08:29.486Z,30.90
2022-08-10T10:10:47.776Z,30.80
2022-08-10T10:12:54.042Z,31.10
2022-08-10T10:15:25.007Z,31.20
2022-08-10T10:17:35.086Z,31.40
2022-08-10T10:19:51.399Z,31.50
2022-08-10T10:22:14.284Z,31.20
2022-08-10T10:24:23.218Z,31.30
2022-08-10T10:26:31.992Z,31.50
2022-08-10T10:29:15.321Z,31.50
2022-08-10T10:31:06.052Z,31.10
2022-08-10T10:33:31.726Z,31.10
2022-08-10T10:35:37.516Z,31.60
2022-08-10T10:38:02.953Z,31.60
2022-08-10T10:40:04.977Z,32.00
2022-08-10T10:42:35.052Z,31.60
2022-08-10T10:44:42.438Z,32.00
2022-08-10T10:46:52.956Z,32.50
2022-08-10T10:49:00.080Z,32.40
2022-08-10T10:51:10.739Z,32.60
2022-08-10T10:53:17.999Z,32.50
2022-08-10T10:55:27.108Z,32.50
2022-08-10T10:58:00.414Z,32.80
2022-08-10T10:59:57.834Z,32.80
2022-08-10T11:02:07.636Z,33.20
2022-08-10T11:04:17.245Z,33.30
2022-08-10T11:06:39.214Z,32.70
2022-08-10T11:08:52.101Z,32.60
2022-08-10T11:10:58.693Z,33.00
2022-08-10T11:14:23.494Z,33.30
2022-08-10T11:15:43.013Z,33.30
2022-08-10T11:17:53.674Z,33.30
2022-08-10T11:20:03.458Z,33.20
2022-08-10T11:22:16.202Z,33.30
2022-08-10T11:24:49.060Z,33.70
2022-08-10T11:26:49.086Z,33.80
2022-08-10T11:28:55.674Z,33.50
2022-08-10T11:31:00.113Z,34.30
2022-08-10T11:33:08.341Z,34.10
2022-08-10T11:35:19.672Z,34.40
2022-08-10T11:37:28.377Z,33.90
2022-08-10T11:39:53.807Z,34.40
2022-08-10T11:42:09.928Z,34.30
2022-08-10T11:44:24.231Z,33.30
2022-08-10T11:46:31.385Z,33.80
2022-08-10T11:48:53.755Z,33.90
2022-08-10T11:51:00.027Z,34.40
2022-08-10T11:53:08.581Z,33.70
2022-08-10T11:55:13.773Z,33.80
2022-08-10T11:57:21.109Z,33.60
2022-08-10T11:59:42.896Z,33.30
2022-08-10T12:01:45.700Z,33.70
2022-08-10T12:03:48.409Z,33.60
2022-08-10T12:05:54.647Z,34.00
2022-08-10T12:10:06.915Z,33.80
2022-08-10T12:10:23.709Z,33.70
2022-08-10T12:12:28.177Z,33.40
2022-08-10T12:14:36.260Z,33.60
2022-08-10T12:16:40.569Z,33.70
2022-08-10T12:18:46.957Z,34.40
2022-08-10T12:20:51.738Z,34.40
2022-08-10T12:22:56.836Z,34.70
2022-08-10T12:25:01.519Z,33.70
2022-08-10T12:27:06.052Z,34.30
2022-08-10T12:29:23.573Z,34.40
2022-08-10T12:31:30.969Z,34.40
2022-08-10T12:34:01.787Z,34.20
2022-08-10T12:36:18.016Z,34.50
2022-08-10T12:38:24.143Z,33.00
2022-08-10T12:40:37.039Z,33.70
2022-08-10T12:42:43.331Z,33.20
2022-08-10T12:45:10.815Z,33.40
2022-08-10T12:47:19.036Z,33.60
2022-08-10T12:49:25.149Z,33.80
2022-08-10T12:51:30.296Z,33.60
2022-08-10T12:53:53.420Z,33.70
2022-08-10T12:55:56.149Z,33.10
2022-08-10T12:57:58.871Z,33.50
2022-08-10T13:00:01.724Z,33.60
2022-08-10T13:02:10.909Z,33.50
2022-08-10T13:04:21.984Z,33.90
2022-08-10T13:06:26.649Z,34.00
2022-08-10T13:08:46.675Z,33.90
2022-08-10T13:10:51.135Z,33.80
2022-08-10T13:12:55.558Z,33.60
2022-08-10T13:14:59.456Z,33.60
2022-08-10T13:17:02.205Z,33.90
2022-08-10T13:19:06.405Z,33.90
2022-08-10T13:21:19.973Z,34.10
2022-08-10T13:23:26.642Z,34.10
2022-08-10T13:25:30.701Z,34.10
2022-08-10T13:28:01.208Z,34.00
2022-08-10T13:30:04.947Z,34.10
2022-08-10T13:32:09.894Z,34.10
2022-08-10T13:34:42.707Z,33.70
2022-08-10T13:36:42.941Z,33.70
2022-08-10T13:38:48.665Z,33.60
2022-08-10T13:40:51.373Z,33.70
2022-08-10T13:42:54.087Z,33.50
2022-08-10T13:44:57.331Z,33.70
2022-08-10T13:47:00.133Z,33.70
2022-08-10T13:49:02.978Z,33.80
2022-08-10T13:51:07.269Z,33.20
2022-08-10T13:53:15.521Z,33.60
2022-08-10T13:55:19.234Z,33.70
2022-08-10T13:57:22.947Z,33.80
2022-08-10T14:00:34.050Z,33.70
2022-08-10T14:01:52.533Z,33.50
2022-08-10T14:03:55.358Z,33.00
2022-08-10T14:05:58.426Z,32.40
2022-08-10T14:08:02.520Z,32.30
2022-08-10T14:10:07.957Z,32.50
2022-08-10T14:12:11.353Z,32.60
2022-08-10T14:14:16.338Z,32.70
2022-08-10T14:16:19.955Z,32.50
2022-08-10T14:18:22.700Z,32.50
2022-08-10T14:20:27.493Z,32.60
2022-08-10T14:22:33.604Z,32.20
2022-08-10T14:24:38.618Z,32.30
2022-08-10T14:26:41.355Z,32.30
2022-08-10T14:28:44.906Z,32.50
2022-08-10T14:30:49.253Z,32.60
2022-08-10T14:32:52.713Z,32.90
2022-08-10T14:36:15.407Z,32.70
2022-08-10T14:37:18.697Z,32.40
2022-08-10T14:39:23.643Z,31.90
2022-08-10T14:42:02.803Z,32.10
2022-08-10T14:43:55.044Z,32.20
2022-08-10T14:46:01.504Z,31.90
2022-08-10T14:48:08.428Z,31.90
2022-08-10T14:50:32.407Z,31.80
2022-08-10T14:52:39.358Z,31.80
2022-08-10T14:54:49.805Z,31.80
2022-08-10T14:56:54.812Z,31.60
2022-08-10T14:59:07.049Z,31.70
2022-08-10T15:01:10.303Z,31.50
2022-08-10T15:04:01.432Z,31.40
2022-08-10T15:05:39.874Z,31.20
2022-08-10T15:07:46.360Z,31.00
2022-08-10T15:10:01.425Z,30.80
2022-08-10T15:12:14.125Z,30.90
2022-08-10T15:14:42.879Z,30.70
2022-08-10T15:16:42.461Z,30.70
2022-08-10T15:18:58.345Z,30.70
2022-08-10T15:21:02.627Z,30.40
2022-08-10T15:23:30.062Z,30.30
2022-08-10T15:25:36.572Z,30.50
2022-08-10T15:27:53.468Z,30.30
2022-08-10T15:29:58.365Z,30.50
2022-08-10T15:32:30.078Z,30.30
2022-08-10T15:34:52.801Z,30.30
2022-08-10T15:37:36.930Z,30.40
2022-08-10T15:40:21.940Z,30.40
2022-08-10T15:42:01.836Z,30.20
2022-08-10T15:44:06.060Z,30.00
2022-08-10T15:46:15.676Z,30.00
2022-08-10T15:48:21.498Z,29.80
2022-08-10T15:50:26.184Z,30.00
2022-08-10T15:53:00.263Z,30.10
2022-08-10T15:54:57.798Z,29.90
2022-08-10T15:57:03.128Z,30.00
2022-08-10T15:59:11.173Z,30.10
2022-08-10T16:02:14.397Z,30.00
2022-08-10T16:03:40.951Z,29.80
2022-08-10T16:06:01.600Z,29.80
2022-08-10T16:08:06.586Z,29.70
2022-08-10T16:10:26.457Z,29.70
2022-08-10T16:12:34.139Z,29.70
2022-08-10T16:14:38.386Z,29.60
2022-08-10T16:16:41.091Z,29.50
2022-08-10T16:18:44.608Z,29.70
2022-08-10T16:20:55.044Z,29.60
2022-08-10T16:22:59.347Z,29.60
2022-08-10T16:25:02.056Z,29.50
2022-08-10T16:27:07.332Z,29.40
2022-08-10T16:29:12.125Z,29.40
2022-08-10T16:31:19.424Z,29.20
2022-08-10T16:33:24.045Z,29.10
2022-08-10T16:35:30.616Z,29.20
2022-08-10T16:37:57.805Z,29.10
2022-08-10T16:40:01.153Z,29.10
2022-08-10T16:42:06.150Z,29.10
2022-08-10T16:44:11.408Z,29.00
2022-08-10T16:46:17.445Z,28.90
2022-08-10T16:48:48.796Z,28.90
2022-08-10T16:50:47.329Z,28.80
2022-08-10T16:52:50.468Z,28.80
2022-08-10T16:54:53.518Z,28.80
2022-08-10T16:57:00.499Z,28.80
2022-08-10T16:59:03.229Z,28.70
2022-08-10T17:01:07.908Z,28.70
2022-08-10T17:03:22.479Z,28.60
2022-08-10T17:06:01.720Z,28.60
2022-08-10T17:08:04.284Z,28.60
2022-08-10T17:10:08.660Z,28.50
2022-08-10T17:12:11.786Z,28.40
2022-08-10T17:14:14.614Z,28.40
2022-08-10T17:16:18.205Z,28.30
2022-08-10T17:18:28.440Z,28.40
2022-08-10T17:20:32.991Z,28.40
2022-08-10T17:22:36.725Z,28.30
2022-08-10T17:24:45.876Z,28.20
2022-08-10T17:26:48.604Z,28.30
2022-08-10T17:28:53.071Z,28.10
2022-08-10T17:30:58.009Z,28.10
2022-08-10T17:33:02.463Z,28.10
2022-08-10T17:35:09.077Z,28.00
2022-08-10T17:37:14.683Z,27.90
2022-08-10T17:39:17.502Z,27.80
2022-08-10T17:41:24.450Z,27.70
2022-08-10T17:43:58.403Z,27.70
2022-08-10T17:45:50.542Z,27.70
2022-08-10T17:47:55.485Z,27.60
2022-08-10T17:49:58.887Z,27.60
2022-08-10T17:52:05.160Z,27.50
2022-08-10T17:54:09.904Z,27.50
2022-08-10T17:56:13.791Z,27.40
2022-08-10T17:58:17.728Z,27.30
2022-08-10T18:00:20.452Z,27.30
2022-08-10T18:02:25.121Z,27.30
2022-08-10T18:04:27.910Z,27.20
2022-08-10T18:06:30.944Z,27.20
2022-08-10T18:08:36.040Z,27.10
2022-08-10T18:10:38.781Z,27.00
2022-08-10T18:12:43.684Z,26.90
2022-08-10T18:14:47.784Z,26.90
2022-08-10T18:16:52.453Z,26.90
2022-08-10T18:19:00.334Z,26.80
2022-08-10T18:21:07.247Z,26.70
2022-08-10T18:23:09.977Z,26.60
2022-08-10T18:25:18.986Z,26.60
2022-08-10T18:27:21.719Z,26.50
2022-08-10T18:29:28.267Z,26.40
2022-08-10T18:31:31.022Z,26.40
2022-08-10T18:33:35.620Z,26.30
2022-08-10T18:35:38.352Z,26.30
2022-08-10T18:37:41.183Z,26.30
2022-08-10T18:39:44.195Z,26.20
2022-08-10T18:42:00.390Z,26.10
2022-08-10T18:44:12.487Z,26.10
2022-08-10T18:46:18.424Z,26.00
2022-08-10T18:48:22.687Z,26.00
2022-08-10T18:50:27.653Z,25.90
2022-08-10T18:52:31.743Z,25.90
2022-08-10T18:54:44.570Z,25.80
2022-08-10T18:56:55.962Z,25.80
2022-08-10T18:59:04.920Z,25.70
2022-08-10T19:01:12.845Z,25.60
2022-08-10T19:03:53.619Z,25.50
2022-08-10T19:06:11.085Z,25.40
2022-08-10T19:08:58.788Z,25.40
2022-08-10T19:11:03.661Z,25.30
2022-08-10T19:13:18.706Z,25.20
2022-08-10T19:15:31.014Z,25.10
2022-08-10T19:18:03.499Z,25.20
2022-08-10T19:20:07.743Z,25.10
2022-08-10T19:22:16.777Z,24.90
2022-08-10T19:24:23.205Z,24.90
2022-08-10T19:26:44.015Z,24.90
2022-08-10T19:28:55.460Z,24.80
2022-08-10T19:31:02.120Z,24.80
2022-08-10T19:33:10.417Z,24.70
2022-08-10T19:35:23.578Z,24.70
2022-08-10T19:37:32.473Z,24.60
2022-08-10T19:39:50.974Z,24.60
2022-08-10T19:41:56.471Z,24.50
2022-08-10T19:44:04.384Z,24.40
2022-08-10T19:46:12.063Z,24.30
2022-08-10T19:48:19.765Z,24.30
2022-08-10T19:50:27.665Z,24.30
2022-08-10T19:52:33.856Z,24.20
2022-08-10T19:54:39.489Z,24.20
2022-08-10T19:56:47.191Z,24.10
2022-08-10T19:58:55.682Z,24.10
2022-08-10T20:01:01.699Z,24.00
2022-08-10T20:03:11.802Z,23.90
2022-08-10T20:05:17.651Z,23.90
2022-08-10T20:07:23.329Z,23.80
2022-08-10T20:09:31.559Z,23.80
2022-08-10T20:11:44.523Z,23.80
2022-08-10T20:13:50.219Z,23.70
2022-08-10T20:15:59.919Z,23.60
2022-08-10T20:18:05.282Z,23.50
2022-08-10T20:20:18.641Z,23.50
2022-08-10T20:22:29.286Z,23.40
2022-08-10T20:24:38.014Z,23.30
2022-08-10T20:26:44.269Z,23.30
2022-08-10T20:28:50.485Z,23.30
2022-08-10T20:30:54.071Z,23.20
2022-08-10T20:33:00.422Z,23.20
2022-08-10T20:35:07.167Z,23.20
2022-08-10T20:37:41.228Z,23.20
2022-08-10T20:39:44.533Z,23.20
2022-08-10T20:42:05.004Z,23.10
2022-08-10T20:44:12.017Z,23.10
2022-08-10T20:46:19.389Z,23.10
2022-08-10T20:48:27.294Z,23.00
2022-08-10T20:50:34.894Z,22.90
2022-08-10T20:52:37.625Z,22.90
2022-08-10T20:54:43.075Z,22.80
2022-08-10T20:56:49.344Z,22.80
2022-08-10T20:59:09.362Z,22.70
2022-08-10T21:01:17.070Z,22.60
2022-08-10T21:03:45.423Z,22.70
2022-08-10T21:05:55.396Z,22.60
2022-08-10T21:08:06.492Z,22.60
2022-08-10T21:10:17.508Z,22.50
2022-08-10T21:12:36.785Z,22.50
2022-08-10T21:14:45.061Z,22.50
2022-08-10T21:17:03.448Z,22.40
2022-08-10T21:19:30.191Z,22.40
2022-08-10T21:21:56.490Z,22.40
2022-08-10T21:24:04.907Z,22.30
2022-08-10T21:26:08.091Z,22.30
2022-08-10T21:29:01.344Z,22.20
2022-08-10T21:31:28.074Z,22.00
2022-08-10T21:33:36.618Z,21.80
2022-08-10T21:35:42.622Z,21.80
2022-08-10T21:37:56.462Z,21.70
2022-08-10T21:40:34.865Z,21.60
2022-08-10T21:42:56.892Z,21.50
2022-08-10T21:45:21.351Z,21.40
2022-08-10T21:48:18.054Z,21.30
2022-08-10T21:50:39.711Z,21.20
2022-08-10T21:53:09.416Z,21.10
2022-08-10T21:55:57.486Z,21.00
2022-08-10T21:58:17.024Z,20.90
2022-08-10T22:00:38.998Z,20.90
2022-08-10T22:02:59.222Z,20.80
2022-08-10T22:05:20.246Z,20.70
2022-08-10T22:07:40.861Z,20.60
2022-08-10T22:10:03.942Z,20.50
2022-08-10T22:12:31.660Z,20.50
2022-08-10T22:14:53.963Z,20.40
2022-08-10T22:17:59.739Z,20.40
2022-08-10T22:20:00.439Z,20.30
2022-08-10T22:22:28.204Z,20.20
2022-08-10T22:24:56.564Z,20.10
2022-08-10T22:27:46.550Z,20.10
2022-08-10T22:30:08.509Z,20.00
2022-08-10T22:32:33.114Z,19.90
2022-08-10T22:35:16.768Z,19.80
2022-08-10T22:37:42.801Z,19.80
2022-08-10T22:40:14.216Z,19.70
2022-08-10T22:42:59.047Z,19.70
2022-08-10T22:45:22.950Z,19.60
2022-08-10T22:47:43.263Z,19.50
2022-08-10T22:49:44.923Z,19.50
2022-08-10T22:51:53.648Z,19.40
2022-08-10T22:54:30.425Z,19.30
2022-08-10T22:56:55.545Z,19.30
2022-08-10T22:58:59.821Z,19.30
2022-08-10T23:01:05.061Z,19.20
2022-08-10T23:03:11.488Z,19.20
2022-08-10T23:05:15.505Z,19.10
2022-08-10T23:07:21.672Z,19.10
2022-08-10T23:09:26.551Z,19.10
2022-08-10T23:11:30.898Z,19.10
2022-08-10T23:13:36.771Z,19.10
2022-08-10T23:15:59.736Z,19.10
2022-08-10T23:18:20.223Z,19.00
2022-08-10T23:20:22.945Z,19.00
2022-08-10T23:22:32.671Z,19.00
2022-08-10T23:24:37.107Z,18.90
2022-08-10T23:26:39.984Z,18.90
2022-08-10T23:29:03.234Z,18.90
2022-08-10T23:31:11.245Z,18.90
2022-08-10T23:33:13.987Z,18.80
2022-08-10T23:36:05.702Z,18.80
2022-08-10T23:37:40.192Z,18.80
2022-08-10T23:39:44.651Z,18.80
2022-08-10T23:41:51.082Z,18.70
2022-08-10T23:44:03.891Z,18.70
2022-08-10T23:46:07.766Z,18.70
2022-08-10T23:48:12.149Z,18.70
2022-08-10T23:50:16.622Z,18.70
2022-08-10T23:52:21.885Z,18.70
2022-08-10T23:54:25.085Z,18.70
2022-08-10T23:56:27.854Z,18.70
2022-08-10T23:58:35.836Z,18.60
